Time;durP1;ratioP1;P1;durP2;ratioP2;P2;SDS_P1;SDS_P2;PMS_P1;PMS_P2;Temp;Humidity;BMP_temperature;BMP_pressure;BME280_temperature;BME280_humidity;BME280_pressure;Samples;Min_cycle;Max_cycle;Signal;HPM_P1;HPM_P2
2022/11/06 00:00:23;;;;;;;15.50;7.20;;;;;;;;;;5003893;28;20240;-80
2022/11/06 00:02:49;;;;;;;11.83;7.33;;;;;;;;;;5032596;28;20269;-80
2022/11/06 00:08:00;;;;;;;11.10;7.30;;;;;;;;;;5015818;28;20243;-80
2022/11/06 00:10:26;;;;;;;10.87;7.33;;;;;;;;;;5025531;28;20220;-80
2022/11/06 00:12:52;;;;;;;11.97;6.70;;;;;;;;;;5028470;28;20189;-80
2022/11/06 00:15:18;;;;;;;11.27;7.00;;;;;;;;;;5017885;28;20189;-80
2022/11/06 00:17:44;;;;;;;14.20;7.10;;;;;;;;;;5012742;28;20294;-80
2022/11/06 00:20:10;;;;;;;12.32;8.00;;;;;;;;;;5028360;28;20530;-80
2022/11/06 00:22:36;;;;;;;12.73;6.83;;;;;;;;;;5014013;28;20196;-80
2022/11/06 00:25:03;;;;;;;11.20;7.20;;;;;;;;;;5005017;28;20279;-80
2022/11/06 00:27:29;;;;;;;12.20;6.40;;;;;;;;;;5030943;28;20214;-80
2022/11/06 00:29:55;;;;;;;10.13;7.00;;;;;;;;;;5020262;28;20221;-80
2022/11/06 00:32:21;;;;;;;12.77;6.40;;;;;;;;;;5017492;28;20193;-80
2022/11/06 00:34:47;;;;;;;12.57;6.93;;;;;;;;;;5014043;28;20181;-77
2022/11/06 00:37:13;;;;;;;10.37;6.80;;;;;;;;;;5018144;28;20192;-77
2022/11/06 00:39:39;;;;;;;11.60;6.88;;;;;;;;;;5021904;28;20495;-77
2022/11/06 00:42:05;;;;;;;11.93;7.10;;;;;;;;;;5022024;28;20447;-77
2022/11/06 00:44:31;;;;;;;11.68;6.90;;;;;;;;;;5019515;28;20446;-77
2022/11/06 00:46:57;;;;;;;11.25;6.75;;;;;;;;;;5016124;28;20439;-77
2022/11/06 00:49:23;;;;;;;11.93;6.03;;;;;;;;;;5025718;28;20440;-77
2022/11/06 00:51:49;;;;;;;10.73;6.50;;;;;;;;;;5026183;28;20474;-80
2022/11/06 00:54:15;;;;;;;12.20;6.10;;;;;;;;;;5016741;28;20596;-80
2022/11/06 00:56:41;;;;;;;12.68;6.13;;;;;;;;;;5023686;28;20434;-80
2022/11/06 00:59:10;;;;;;;12.57;5.95;;;;;;;;;;5024595;28;20444;-80
2022/11/06 01:01:37;;;;;;;12.52;5.78;;;;;;;;;;5027738;28;20431;-80
2022/11/06 01:04:13;;;;;;;11.40;5.70;;;;;;;;;;5023585;28;20485;-80
2022/11/06 01:06:41;;;;;;;10.67;5.83;;;;;;;;;;5025308;28;20438;-80
2022/11/06 01:09:08;;;;;;;10.73;6.00;;;;;;;;;;5017168;28;20440;-80
2022/11/06 01:11:36;;;;;;;10.85;6.05;;;;;;;;;;5026295;28;20468;-80
2022/11/06 01:14:03;;;;;;;12.30;6.18;;;;;;;;;;5023710;28;20435;-80
2022/11/06 01:16:29;;;;;;;10.27;5.68;;;;;;;;;;5045823;28;20668;-80
2022/11/06 01:18:56;;;;;;;9.75;5.53;;;;;;;;;;5007948;28;20425;-80
2022/11/06 01:21:27;;;;;;;10.77;5.60;;;;;;;;;;5025680;28;20468;-80
2022/11/06 01:23:54;;;;;;;12.02;5.53;;;;;;;;;;5028923;28;20430;-90
2022/11/06 01:26:20;;;;;;;13.07;5.88;;;;;;;;;;4996021;28;20428;-89
2022/11/06 01:28:46;;;;;;;10.15;5.63;;;;;;;;;;5018688;28;20434;-89
2022/11/06 01:31:14;;;;;;;11.45;5.80;;;;;;;;;;5032982;28;20460;-90
2022/11/06 01:33:40;;;;;;;13.40;5.90;;;;;;;;;;5012329;28;20513;-90
2022/11/06 01:36:10;;;;;;;8.77;5.32;;;;;;;;;;5022804;28;20421;-90
2022/11/06 01:38:39;;;;;;;10.32;5.43;;;;;;;;;;5010893;28;20431;-89
2022/11/06 01:41:05;;;;;;;8.80;5.38;;;;;;;;;;5032740;28;20422;-78
2022/11/06 01:43:44;;;;;;;10.65;5.78;;;;;;;;;;5016085;28;20443;-77
2022/11/06 01:46:10;;;;;;;11.38;5.90;;;;;;;;;;5029111;28;20421;-77
2022/11/06 01:48:38;;;;;;;9.45;5.75;;;;;;;;;;5017036;28;20442;-77
2022/11/06 01:51:05;;;;;;;10.35;5.15;;;;;;;;;;5032181;28;20521;-77
2022/11/06 01:53:31;;;;;;;9.98;5.47;;;;;;;;;;5022159;28;20425;-77
2022/11/06 01:55:59;;;;;;;10.07;5.43;;;;;;;;;;5013064;28;20469;-77
2022/11/06 01:58:27;;;;;;;11.53;5.70;;;;;;;;;;5013139;28;20427;-77
2022/11/06 02:00:53;;;;;;;7.97;4.70;;;;;;;;;;5033853;28;20431;-77
2022/11/06 02:03:19;;;;;;;12.15;5.57;;;;;;;;;;5020110;28;20439;-77
2022/11/06 02:05:46;;;;;;;12.75;5.70;;;;;;;;;;5016231;28;20437;-77
2022/11/06 02:08:13;;;;;;;11.73;5.50;;;;;;;;;;5021950;28;20497;-77
2022/11/06 02:10:39;;;;;;;10.57;5.50;;;;;;;;;;5018147;28;20516;-77
2022/11/06 02:13:15;;;;;;;12.88;5.32;;;;;;;;;;5022886;28;20489;-77
2022/11/06 02:15:47;;;;;;;12.45;5.80;;;;;;;;;;5021919;28;20459;-79
2022/11/06 02:18:22;;;;;;;11.90;5.82;;;;;;;;;;5018331;28;20415;-79
2022/11/06 02:20:54;;;;;;;11.10;5.60;;;;;;;;;;5020115;28;20483;-79
2022/11/06 02:23:20;;;;;;;10.03;5.27;;;;;;;;;;5025221;28;20191;-79
2022/11/06 02:25:58;;;;;;;8.07;4.53;;;;;;;;;;5030171;28;20231;-79
2022/11/06 02:28:53;;;;;;;9.23;5.32;;;;;;;;;;5017164;28;20467;-79
2022/11/06 02:31:24;;;;;;;10.18;5.35;;;;;;;;;;5002349;28;20531;-90
2022/11/06 02:33:55;;;;;;;10.48;5.50;;;;;;;;;;5024295;28;20429;-90
2022/11/06 02:36:25;;;;;;;10.18;5.18;;;;;;;;;;5015188;28;20426;-89
2022/11/06 02:38:55;;;;;;;10.70;4.83;;;;;;;;;;5021775;28;20438;-90
2022/11/06 02:41:24;;;;;;;10.60;5.30;;;;;;;;;;5033370;28;20430;-80
2022/11/06 02:43:52;;;;;;;11.82;5.25;;;;;;;;;;5019570;28;20440;-77
2022/11/06 02:46:22;;;;;;;11.30;5.20;;;;;;;;;;5012737;28;20411;-77
2022/11/06 02:48:55;;;;;;;10.13;4.90;;;;;;;;;;5018176;28;20489;-80
2022/11/06 02:51:24;;;;;;;13.48;5.07;;;;;;;;;;5017815;28;20456;-80
2022/11/06 02:53:52;;;;;;;10.82;5.00;;;;;;;;;;5014545;28;20553;-80
2022/11/06 02:56:21;;;;;;;11.00;4.90;;;;;;;;;;5031441;28;20482;-90
2022/11/06 02:58:52;;;;;;;10.90;5.20;;;;;;;;;;5030884;28;20510;-90
2022/11/06 03:01:25;;;;;;;11.18;4.80;;;;;;;;;;5031516;28;20432;-90
2022/11/06 03:03:53;;;;;;;9.48;4.68;;;;;;;;;;5014848;28;20426;-90
2022/11/06 03:06:22;;;;;;;10.13;4.70;;;;;;;;;;5031507;28;20425;-89
2022/11/06 03:08:48;;;;;;;10.80;4.60;;;;;;;;;;5024745;28;20438;-90
2022/11/06 03:11:17;;;;;;;9.67;3.90;;;;;;;;;;5013161;28;20174;-89
2022/11/06 03:14:12;;;;;;;11.55;4.47;;;;;;;;;;5012520;28;20415;-90
2022/11/06 03:16:50;;;;;;;9.90;4.00;;;;;;;;;;4960039;28;20246;-89
2022/11/06 03:19:46;;;;;;;7.78;3.80;;;;;;;;;;5023580;28;20510;-89
2022/11/06 03:22:14;;;;;;;8.98;4.07;;;;;;;;;;5015303;28;20510;-80
2022/11/06 03:24:47;;;;;;;9.27;4.13;;;;;;;;;;5023846;28;20583;-80
2022/11/06 03:27:16;;;;;;;11.10;4.10;;;;;;;;;;5026062;28;20181;-80
2022/11/06 03:29:45;;;;;;;9.70;3.70;;;;;;;;;;5015009;28;20443;-80
2022/11/06 03:32:23;;;;;;;9.90;3.90;;;;;;;;;;5022225;28;20434;-80
2022/11/06 03:35:01;;;;;;;8.90;3.80;;;;;;;;;;5011831;28;20514;-80
2022/11/06 03:37:30;;;;;;;9.57;4.10;;;;;;;;;;5013107;28;20423;-90
2022/11/06 03:39:59;;;;;;;10.57;3.80;;;;;;;;;;5035967;28;20443;-90
2022/11/06 03:42:29;;;;;;;9.30;3.75;;;;;;;;;;5032567;28;20453;-89
2022/11/06 03:44:57;;;;;;;12.80;3.90;;;;;;;;;;5025202;28;20518;-90
2022/11/06 03:47:23;;;;;;;11.45;4.00;;;;;;;;;;5011852;28;20418;-90
2022/11/06 03:49:53;;;;;;;10.33;3.50;;;;;;;;;;5012486;28;20231;-90
2022/11/06 03:52:24;;;;;;;7.97;3.23;;;;;;;;;;5024313;28;20185;-90
2022/11/06 03:54:56;;;;;;;10.40;3.80;;;;;;;;;;5007530;28;20190;-90
2022/11/06 03:57:30;;;;;;;10.67;3.10;;;;;;;;;;5016175;28;20237;-90
2022/11/06 03:59:59;;;;;;;8.90;3.07;;;;;;;;;;5014217;28;20185;-89
2022/11/06 04:02:25;;;;;;;14.87;3.37;;;;;;;;;;5014086;28;20213;-89
2022/11/06 04:04:55;;;;;;;8.37;2.97;;;;;;;;;;5017255;28;20192;-90
2022/11/06 04:07:23;;;;;;;10.18;3.80;;;;;;;;;;5031088;28;20441;-90
2022/11/06 04:13:56;;;;;;;8.70;3.50;;;;;;;;;;5015527;28;20437;-81
2022/11/06 04:15:32;;;;;;;9.20;3.53;;;;;;;;;;5020834;28;20429;-80
2022/11/06 04:17:58;;;;;;;9.32;3.53;;;;;;;;;;5028020;28;20421;-80
2022/11/06 04:23:23;;;;;;;8.67;3.03;;;;;;;;;;5019194;28;20208;-80
2022/11/06 04:28:46;;;;;;;8.82;3.50;;;;;;;;;;5020528;28;20500;-80
2022/11/06 04:31:21;;;;;;;12.27;3.60;;;;;;;;;;5025197;28;20430;-80
2022/11/06 04:34:08;;;;;;;9.45;3.55;;;;;;;;;;5020642;28;20429;-80
2022/11/06 04:36:37;;;;;;;10.05;3.63;;;;;;;;;;5014413;28;20461;-77
2022/11/06 04:39:11;;;;;;;10.67;3.73;;;;;;;;;;5023484;28;20496;-77
2022/11/06 04:41:40;;;;;;;9.80;3.83;;;;;;;;;;5031298;28;20433;-78
2022/11/06 04:44:13;;;;;;;8.32;3.40;;;;;;;;;;5022198;28;20422;-77
2022/11/06 04:46:44;;;;;;;10.07;3.30;;;;;;;;;;5031731;28;20434;-77
2022/11/06 04:49:10;;;;;;;10.70;3.10;;;;;;;;;;5025085;28;20209;-77
2022/11/06 04:51:37;;;;;;;8.30;3.07;;;;;;;;;;5033157;28;20204;-78
2022/11/06 04:54:04;;;;;;;11.97;3.63;;;;;;;;;;5027940;28;20181;-78
2022/11/06 04:56:31;;;;;;;9.67;3.20;;;;;;;;;;5014831;28;20332;-77
2022/11/06 04:58:57;;;;;;;6.37;3.10;;;;;;;;;;5016082;28;20235;-77
2022/11/06 05:01:23;;;;;;;8.47;3.07;;;;;;;;;;4999773;28;20196;-90
2022/11/06 05:03:49;;;;;;;6.63;3.17;;;;;;;;;;5015723;28;20177;-90
2022/11/06 05:06:15;;;;;;;7.70;3.20;;;;;;;;;;5027472;28;20275;-90
2022/11/06 05:08:42;;;;;;;10.93;3.30;;;;;;;;;;5018993;28;20272;-90
2022/11/06 05:11:08;;;;;;;9.70;3.40;;;;;;;;;;5015223;28;20193;-90
2022/11/06 05:13:34;;;;;;;11.50;3.60;;;;;;;;;;5015226;28;20189;-90
2022/11/06 05:16:00;;;;;;;10.68;3.83;;;;;;;;;;5020467;28;20428;-90
2022/11/06 05:18:26;;;;;;;8.07;3.57;;;;;;;;;;5035165;28;20207;-90
2022/11/06 05:22:56;;;;;;;10.70;3.27;;;;;;;;;;5029681;28;20185;-77
2022/11/06 05:23:39;;;;;;;11.03;3.50;;;;;;;;;;5014988;28;20181;-77
2022/11/06 05:26:05;;;;;;;10.23;3.50;;;;;;;;;;5015095;28;20299;-77
2022/11/06 05:28:31;;;;;;;10.57;3.67;;;;;;;;;;5020739;28;20279;-77
2022/11/06 05:30:57;;;;;;;11.98;3.97;;;;;;;;;;5018390;28;20430;-77
2022/11/06 05:33:23;;;;;;;6.57;3.20;;;;;;;;;;5026346;28;20219;-77
2022/11/06 05:35:49;;;;;;;7.77;3.33;;;;;;;;;;5020407;28;20190;-77
2022/11/06 05:38:16;;;;;;;10.88;3.65;;;;;;;;;;5025344;28;20521;-77
2022/11/06 05:40:42;;;;;;;11.03;3.57;;;;;;;;;;5028714;28;20184;-78
2022/11/06 05:43:08;;;;;;;7.70;3.20;;;;;;;;;;4999213;28;20224;-77
2022/11/06 05:45:34;;;;;;;8.63;3.03;;;;;;;;;;5025323;28;20188;-77
2022/11/06 05:48:00;;;;;;;10.17;3.37;;;;;;;;;;5015141;28;20204;-77
2022/11/06 05:50:26;;;;;;;10.05;3.20;;;;;;;;;;5022595;28;20431;-90
2022/11/06 05:52:52;;;;;;;9.17;3.33;;;;;;;;;;5014524;28;20215;-90
2022/11/06 05:55:18;;;;;;;10.53;3.40;;;;;;;;;;5015695;28;20248;-89
2022/11/06 05:57:44;;;;;;;7.63;3.23;;;;;;;;;;5013044;28;20182;-90
2022/11/06 06:00:11;;;;;;;11.73;3.75;;;;;;;;;;5014396;28;20450;-89
2022/11/06 06:02:37;;;;;;;7.68;3.22;;;;;;;;;;5024852;28;20407;-90
2022/11/06 06:05:03;;;;;;;8.53;3.00;;;;;;;;;;5013596;28;20185;-81
2022/11/06 06:07:29;;;;;;;11.05;3.50;;;;;;;;;;5010757;28;20427;-81
2022/11/06 06:09:55;;;;;;;5.77;2.73;;;;;;;;;;5010926;28;20228;-81
2022/11/06 06:12:25;;;;;;;7.55;3.40;;;;;;;;;;5011035;28;20430;-82
2022/11/06 06:14:51;;;;;;;9.13;3.47;;;;;;;;;;5013136;28;20192;-81
2022/11/06 06:17:17;;;;;;;7.95;3.08;;;;;;;;;;5010337;28;20427;-81
2022/11/06 06:19:43;;;;;;;9.05;3.20;;;;;;;;;;5010020;28;20441;-81
2022/11/06 06:22:09;;;;;;;5.23;2.83;;;;;;;;;;5013422;28;20181;-81
2022/11/06 06:24:35;;;;;;;7.53;3.25;;;;;;;;;;4996208;28;20450;-80
2022/11/06 06:27:01;;;;;;;8.40;3.00;;;;;;;;;;5013469;28;20177;-80
2022/11/06 06:29:27;;;;;;;8.98;3.42;;;;;;;;;;5013210;28;20443;-80
2022/11/06 06:31:53;;;;;;;10.50;3.30;;;;;;;;;;5010340;28;20456;-80
2022/11/06 06:34:19;;;;;;;5.67;2.80;;;;;;;;;;5013105;28;20178;-80
2022/11/06 06:36:49;;;;;;;9.73;3.42;;;;;;;;;;5014195;28;20419;-80
2022/11/06 06:39:15;;;;;;;9.10;3.53;;;;;;;;;;5024383;22;20526;-79
2022/11/06 06:41:41;;;;;;;7.20;2.80;;;;;;;;;;5029709;28;20178;-77
2022/11/06 06:44:07;;;;;;;10.25;3.17;;;;;;;;;;5016746;28;20456;-77
2022/11/06 06:46:33;;;;;;;9.85;3.50;;;;;;;;;;5009387;28;20414;-76
2022/11/06 06:48:59;;;;;;;9.50;3.05;;;;;;;;;;5050323;28;20423;-77
2022/11/06 06:51:25;;;;;;;9.45;3.55;;;;;;;;;;5028671;28;20436;-77
2022/11/06 06:53:51;;;;;;;8.70;3.30;;;;;;;;;;5015082;28;20497;-77
2022/11/06 06:56:17;;;;;;;8.35;3.58;;;;;;;;;;5014703;28;20504;-77
2022/11/06 06:58:43;;;;;;;10.87;3.03;;;;;;;;;;5030308;28;20181;-80
2022/11/06 07:01:09;;;;;;;9.23;3.00;;;;;;;;;;5032574;28;20191;-80
2022/11/06 07:03:38;;;;;;;8.23;2.90;;;;;;;;;;5012709;28;20192;-80
2022/11/06 07:06:05;;;;;;;8.27;3.03;;;;;;;;;;5032825;28;20208;-80
2022/11/06 07:08:31;;;;;;;9.03;3.17;;;;;;;;;;5027352;28;20252;-77
2022/11/06 07:11:01;;;;;;;8.48;2.90;;;;;;;;;;5024415;28;20451;-77
2022/11/06 07:13:27;;;;;;;8.23;3.00;;;;;;;;;;5028730;28;20177;-81
2022/11/06 07:15:53;;;;;;;10.10;3.22;;;;;;;;;;5018924;28;20452;-81
2022/11/06 07:18:19;;;;;;;7.32;3.17;;;;;;;;;;5031832;28;20531;-81
2022/11/06 07:20:45;;;;;;;8.10;3.20;;;;;;;;;;5033519;28;20424;-81
2022/11/06 07:23:11;;;;;;;8.52;3.20;;;;;;;;;;5017232;28;20467;-81
2022/11/06 07:25:37;;;;;;;8.70;3.30;;;;;;;;;;5012848;28;20505;-81
2022/11/06 07:28:04;;;;;;;9.75;3.10;;;;;;;;;;5031610;28;20429;-81
2022/11/06 07:30:30;;;;;;;7.83;3.37;;;;;;;;;;5017650;28;20216;-89
2022/11/06 07:32:59;;;;;;;12.40;3.50;;;;;;;;;;5030149;28;20462;-90
2022/11/06 07:35:25;;;;;;;8.47;2.70;;;;;;;;;;5028383;28;20271;-89
2022/11/06 07:37:51;;;;;;;9.25;2.88;;;;;;;;;;5012512;28;20504;-90
2022/11/06 07:40:17;;;;;;;7.07;2.70;;;;;;;;;;5023057;28;20233;-90
2022/11/06 07:42:43;;;;;;;10.57;2.77;;;;;;;;;;5014808;28;20189;-89
2022/11/06 07:45:09;;;;;;;6.73;2.63;;;;;;;;;;5035816;28;20280;-90
2022/11/06 07:47:35;;;;;;;9.23;2.67;;;;;;;;;;5037116;28;20184;-80
2022/11/06 07:50:01;;;;;;;7.17;2.90;;;;;;;;;;5037110;28;20292;-80
2022/11/06 07:52:27;;;;;;;7.27;2.90;;;;;;;;;;5026220;28;20191;-80
2022/11/06 07:54:53;;;;;;;5.57;2.60;;;;;;;;;;5044612;28;20208;-80
2022/11/06 07:57:19;;;;;;;7.97;2.73;;;;;;;;;;5052659;28;20219;-80
2022/11/06 07:59:45;;;;;;;6.20;2.50;;;;;;;;;;5013223;28;20197;-80
2022/11/06 08:02:12;;;;;;;6.07;2.50;;;;;;;;;;5039291;28;20188;-77
2022/11/06 08:04:38;;;;;;;6.47;2.60;;;;;;;;;;5052205;28;20228;-77
2022/11/06 08:07:04;;;;;;;9.90;2.80;;;;;;;;;;5037046;28;20191;-77
2022/11/06 08:09:30;;;;;;;5.10;2.40;;;;;;;;;;5048808;28;20239;-77
2022/11/06 08:11:56;;;;;;;5.13;2.63;;;;;;;;;;5036517;28;20184;-77
2022/11/06 08:14:23;;;;;;;6.17;2.60;;;;;;;;;;5034590;28;20181;-76
2022/11/06 08:16:49;;;;;;;6.33;2.63;;;;;;;;;;5067411;28;20184;-76
2022/11/06 08:19:15;;;;;;;5.73;2.60;;;;;;;;;;5038193;28;20250;-76
2022/11/06 08:21:41;;;;;;;7.33;2.33;;;;;;;;;;5039062;28;20188;-79
2022/11/06 08:24:07;;;;;;;8.53;2.53;;;;;;;;;;5043121;28;20184;-79
2022/11/06 08:26:33;;;;;;;6.47;2.50;;;;;;;;;;5055491;28;20195;-79
2022/11/06 08:28:59;;;;;;;6.10;2.30;;;;;;;;;;5028923;28;20283;-79
2022/11/06 08:31:25;;;;;;;6.50;2.60;;;;;;;;;;5019805;28;20267;-79
2022/11/06 08:33:52;;;;;;;11.77;2.97;;;;;;;;;;5018843;28;20280;-79
2022/11/06 08:36:18;;;;;;;5.80;2.30;;;;;;;;;;5035746;28;20211;-79
2022/11/06 08:38:47;;;;;;;6.90;2.60;;;;;;;;;;5035749;28;20227;-81
2022/11/06 08:41:13;;;;;;;5.17;2.30;;;;;;;;;;5035643;28;20180;-81
2022/11/06 08:43:39;;;;;;;10.83;2.87;;;;;;;;;;5035078;28;20184;-81
2022/11/06 08:46:06;;;;;;;7.67;2.50;;;;;;;;;;5071437;28;20180;-80
2022/11/06 08:48:33;;;;;;;8.20;2.88;;;;;;;;;;5015368;28;20446;-80
2022/11/06 08:50:59;;;;;;;9.47;2.83;;;;;;;;;;5027142;28;20437;-81
2022/11/06 08:53:25;;;;;;;8.13;2.60;;;;;;;;;;5018864;28;20180;-80
2022/11/06 08:55:51;;;;;;;5.93;2.47;;;;;;;;;;5034167;28;20180;-79
2022/11/06 08:58:17;;;;;;;4.63;2.37;;;;;;;;;;5035677;28;20176;-79
2022/11/06 09:00:43;;;;;;;6.60;2.37;;;;;;;;;;5019129;28;20222;-79
2022/11/06 09:03:12;;;;;;;10.13;2.80;;;;;;;;;;5036505;28;20177;-79
2022/11/06 09:05:41;;;;;;;5.70;2.50;;;;;;;;;;5035557;28;20211;-79
2022/11/06 09:08:08;;;;;;;6.67;2.23;;;;;;;;;;5018933;28;20181;-79
2022/11/06 09:10:34;;;;;;;6.83;2.80;;;;;;;;;;5018347;28;20208;-80
2022/11/06 09:13:00;;;;;;;8.43;2.80;;;;;;;;;;5034969;28;20191;-80
2022/11/06 09:15:26;;;;;;;9.30;2.80;;;;;;;;;;5018922;28;20181;-80
2022/11/06 09:17:53;;;;;;;10.87;3.00;;;;;;;;;;5034625;28;20180;-81
2022/11/06 09:20:19;;;;;;;8.80;2.63;;;;;;;;;;5058602;28;20184;-81
2022/11/06 09:22:46;;;;;;;6.20;2.40;;;;;;;;;;5054822;28;20184;-81
2022/11/06 09:25:13;;;;;;;8.87;2.80;;;;;;;;;;5054913;28;20180;-81
2022/11/06 09:27:46;;;;;;;7.00;2.67;;;;;;;;;;5055914;28;20211;-80
2022/11/06 09:30:13;;;;;;;6.27;2.63;;;;;;;;;;5040086;28;20227;-80
2022/11/06 09:32:44;;;;;;;9.27;2.60;;;;;;;;;;5034248;28;20184;-80
2022/11/06 09:35:10;;;;;;;10.30;2.70;;;;;;;;;;5034019;28;20183;-80
2022/11/06 09:37:36;;;;;;;6.50;2.63;;;;;;;;;;5034423;28;20215;-80
2022/11/06 09:40:02;;;;;;;5.43;2.30;;;;;;;;;;5017135;28;20310;-80
2022/11/06 09:42:47;;;;;;;7.60;2.87;;;;;;;;;;5034046;28;20195;-79
2022/11/06 09:45:21;;;;;;;5.80;2.47;;;;;;;;;;5033867;28;20183;-81
2022/11/06 09:47:51;;;;;;;9.63;2.57;;;;;;;;;;5033932;28;20180;-81
2022/11/06 09:50:19;;;;;;;7.40;2.30;;;;;;;;;;5033729;28;20232;-81
2022/11/06 09:52:58;;;;;;;6.43;2.50;;;;;;;;;;5034072;28;20183;-81
2022/11/06 09:55:26;;;;;;;6.57;2.37;;;;;;;;;;5034858;28;20200;-81
2022/11/06 09:57:58;;;;;;;6.73;2.57;;;;;;;;;;5033728;28;20176;-81
2022/11/06 10:00:24;;;;;;;5.20;2.33;;;;;;;;;;5034388;28;20258;-81
2022/11/06 10:02:56;;;;;;;9.80;2.47;;;;;;;;;;5034594;28;20173;-81
2022/11/06 10:05:30;;;;;;;6.95;2.30;;;;;;;;;;5033027;28;20421;-81
2022/11/06 10:07:58;;;;;;;9.20;3.00;;;;;;;;;;5032554;28;20410;-81
2022/11/06 10:10:28;;;;;;;7.38;2.85;;;;;;;;;;5039837;28;20468;-81
2022/11/06 10:12:54;;;;;;;8.05;2.90;;;;;;;;;;5032603;28;20409;-81
2022/11/06 10:15:35;;;;;;;7.97;2.80;;;;;;;;;;5032409;28;20428;-81
2022/11/06 10:18:20;;;;;;;8.05;2.70;;;;;;;;;;5035585;28;20412;-89
2022/11/06 10:21:05;;;;;;;6.60;2.80;;;;;;;;;;5035970;28;20438;-90
2022/11/06 10:23:43;;;;;;;7.28;2.90;;;;;;;;;;5042110;28;20416;-90
2022/11/06 10:26:13;;;;;;;9.77;3.00;;;;;;;;;;5041614;28;20420;-89
2022/11/06 10:29:00;;;;;;;7.82;2.50;;;;;;;;;;5045222;28;20445;-89
2022/11/06 10:31:26;;;;;;;9.23;3.00;;;;;;;;;;5047526;28;20428;-89
2022/11/06 10:34:04;;;;;;;8.05;2.60;;;;;;;;;;5043248;28;20487;-90
2022/11/06 10:36:41;;;;;;;6.65;2.70;;;;;;;;;;5035475;28;20421;-89
2022/11/06 10:39:11;;;;;;;6.97;2.60;;;;;;;;;;5036032;28;20409;-89
2022/11/06 10:41:38;;;;;;;7.35;3.03;;;;;;;;;;5038560;28;20477;-90
2022/11/06 10:44:24;;;;;;;9.73;2.60;;;;;;;;;;5039368;28;20475;-90
2022/11/06 10:46:58;;;;;;;8.15;2.70;;;;;;;;;;5034108;28;20549;-90
2022/11/06 10:49:32;;;;;;;9.10;2.70;;;;;;;;;;5032590;28;20483;-90
2022/11/06 10:51:58;;;;;;;8.25;2.72;;;;;;;;;;5032144;28;20444;-80
2022/11/06 10:54:30;;;;;;;6.78;2.40;;;;;;;;;;5031976;28;20405;-80
2022/11/06 10:57:03;;;;;;;7.70;2.70;;;;;;;;;;5031946;28;20406;-80
2022/11/06 10:59:29;;;;;;;7.47;2.55;;;;;;;;;;5031785;28;20540;-80
2022/11/06 11:01:55;;;;;;;7.80;2.65;;;;;;;;;;5015679;28;20425;-80
2022/11/06 11:04:21;;;;;;;8.35;2.70;;;;;;;;;;5031741;28;20401;-80
2022/11/06 11:06:47;;;;;;;7.30;2.50;;;;;;;;;;5015384;28;20504;-90
2022/11/06 11:09:30;;;;;;;7.15;2.58;;;;;;;;;;5017839;28;20508;-89
2022/11/06 11:11:56;;;;;;;7.30;2.53;;;;;;;;;;5033958;28;20416;-89
2022/11/06 11:14:23;;;;;;;9.00;2.75;;;;;;;;;;5034231;28;20409;-89
2022/11/06 11:16:50;;;;;;;7.88;2.22;;;;;;;;;;5034898;28;20409;-90
2022/11/06 11:19:32;;;;;;;7.22;2.60;;;;;;;;;;5017637;28;20488;-90
2022/11/06 11:22:00;;;;;;;6.40;2.60;;;;;;;;;;5035807;28;20492;-89
2022/11/06 11:24:26;;;;;;;9.13;2.65;;;;;;;;;;5036921;28;20429;-76
2022/11/06 11:26:54;;;;;;;6.93;2.45;;;;;;;;;;5036153;28;20427;-76
2022/11/06 11:29:43;;;;;;;7.75;2.60;;;;;;;;;;5035995;28;20479;-76
2022/11/06 11:32:13;;;;;;;7.57;2.70;;;;;;;;;;5036133;28;20417;-76
2022/11/06 11:34:44;;;;;;;8.63;2.63;;;;;;;;;;5036373;28;20457;-76
2022/11/06 11:37:21;;;;;;;7.45;2.47;;;;;;;;;;5036918;28;20397;-77
2022/11/06 11:39:47;;;;;;;9.30;2.40;;;;;;;;;;5035172;28;20432;-76
2022/11/06 11:42:16;;;;;;;6.15;2.47;;;;;;;;;;5019283;28;20421;-77
2022/11/06 11:44:42;;;;;;;7.63;2.40;;;;;;;;;;5035844;28;20417;-76
2022/11/06 11:47:21;;;;;;;7.38;2.38;;;;;;;;;;5034218;28;20431;-76
2022/11/06 11:49:48;;;;;;;10.43;2.65;;;;;;;;;;5038684;28;20440;-88
2022/11/06 11:52:17;;;;;;;4.93;2.20;;;;;;;;;;5051848;28;20414;-76
2022/11/06 11:54:46;;;;;;;6.57;2.00;;;;;;;;;;5035426;28;20417;-76
2022/11/06 11:57:20;;;;;;;5.93;2.20;;;;;;;;;;5044162;28;20533;-76
2022/11/06 11:59:54;;;;;;;4.90;2.22;;;;;;;;;;5051691;28;20632;-76
2022/11/06 12:02:23;;;;;;;8.45;2.33;;;;;;;;;;5035412;28;20539;-76
2022/11/06 12:05:00;;;;;;;5.85;2.28;;;;;;;;;;5034991;28;20457;-76
2022/11/06 12:07:32;;;;;;;6.72;2.35;;;;;;;;;;5038981;28;20427;-76
2022/11/06 12:09:58;;;;;;;5.90;2.00;;;;;;;;;;5036649;28;20444;-76
2022/11/06 12:12:28;;;;;;;7.13;2.13;;;;;;;;;;5018888;28;20425;-76
2022/11/06 12:15:05;;;;;;;4.95;1.92;;;;;;;;;;5035241;28;20417;-76
2022/11/06 12:17:33;;;;;;;5.53;2.15;;;;;;;;;;5034736;28;20457;-76
2022/11/06 12:20:00;;;;;;;5.20;2.00;;;;;;;;;;5035133;28;20455;-76
2022/11/06 12:22:37;;;;;;;5.35;2.08;;;;;;;;;;5036380;28;20474;-76
2022/11/06 12:25:08;;;;;;;7.28;2.35;;;;;;;;;;5036697;28;20429;-76
2022/11/06 12:27:37;;;;;;;6.65;2.00;;;;;;;;;;5035209;28;20406;-76
2022/11/06 12:30:06;;;;;;;5.80;2.05;;;;;;;;;;5048290;28;20420;-89
2022/11/06 12:32:45;;;;;;;4.15;1.90;;;;;;;;;;5055877;28;20434;-89
2022/11/06 12:35:18;;;;;;;6.05;2.30;;;;;;;;;;5056370;28;20414;-89
2022/11/06 12:37:44;;;;;;;7.07;2.30;;;;;;;;;;5043357;28;20482;-90
2022/11/06 12:40:21;;;;;;;5.95;2.10;;;;;;;;;;5035245;28;20487;-89
2022/11/06 12:42:56;;;;;;;6.60;2.07;;;;;;;;;;5035258;28;20477;-89
2022/11/06 12:45:26;;;;;;;7.32;2.20;;;;;;;;;;5035644;28;20493;-90
2022/11/06 12:48:11;;;;;;;6.03;2.20;;;;;;;;;;5034486;28;20418;-76
2022/11/06 12:50:42;;;;;;;6.75;2.20;;;;;;;;;;5033883;28;20528;-76
2022/11/06 12:53:08;;;;;;;6.00;1.92;;;;;;;;;;5034617;28;20497;-76
2022/11/06 12:55:37;;;;;;;4.55;1.95;;;;;;;;;;5034386;28;20500;-77
2022/11/06 12:58:15;;;;;;;6.80;2.10;;;;;;;;;;5035430;28;20427;-77
2022/11/06 13:00:57;;;;;;;6.75;2.20;;;;;;;;;;5035393;28;20464;-78
2022/11/06 13:03:32;;;;;;;6.67;2.20;;;;;;;;;;5034434;28;20504;-81
2022/11/06 13:06:01;;;;;;;6.75;1.90;;;;;;;;;;5035501;28;20452;-82
2022/11/06 13:08:34;;;;;;;6.50;2.10;;;;;;;;;;5034429;28;20412;-82
2022/11/06 13:11:06;;;;;;;6.43;2.25;;;;;;;;;;5035181;28;20431;-82
2022/11/06 13:13:41;;;;;;;5.70;1.98;;;;;;;;;;5034204;28;20414;-82
2022/11/06 13:16:07;;;;;;;7.82;2.15;;;;;;;;;;5014697;28;20415;-82
2022/11/06 13:18:45;;;;;;;6.70;2.20;;;;;;;;;;5030737;28;20415;-82
2022/11/06 13:21:20;;;;;;;5.85;2.10;;;;;;;;;;5031012;28;20422;-91
2022/11/06 13:23:50;;;;;;;6.85;2.00;;;;;;;;;;5016273;28;20415;-91
2022/11/06 13:26:25;;;;;;;5.13;2.05;;;;;;;;;;5030982;28;20411;-89
2022/11/06 13:28:56;;;;;;;8.18;2.20;;;;;;;;;;5031376;28;20419;-89
2022/11/06 13:31:26;;;;;;;7.07;2.30;;;;;;;;;;5031051;28;20421;-79
2022/11/06 13:33:55;;;;;;;7.32;2.40;;;;;;;;;;5031022;28;20414;-79
2022/11/06 13:36:22;;;;;;;5.80;2.00;;;;;;;;;;5030606;28;20445;-79
2022/11/06 13:39:14;;;;;;;5.25;2.25;;;;;;;;;;5030678;28;20415;-76
2022/11/06 13:41:40;;;;;;;5.80;2.20;;;;;;;;;;5012150;28;20447;-76
2022/11/06 13:44:14;;;;;;;8.67;2.30;;;;;;;;;;5029530;28;20424;-76
2022/11/06 13:46:40;;;;;;;7.23;1.90;;;;;;;;;;5031206;28;20181;-76
2022/11/06 13:49:13;;;;;;;6.72;2.15;;;;;;;;;;5030937;28;20429;-76
2022/11/06 13:51:46;;;;;;;5.47;1.90;;;;;;;;;;5031109;28;20173;-76
2022/11/06 13:54:31;;;;;;;7.77;2.17;;;;;;;;;;5033896;28;20218;-76
2022/11/06 13:56:57;;;;;;;7.60;2.00;;;;;;;;;;5034499;28;20200;-76
2022/11/06 13:59:42;;;;;;;6.63;2.30;;;;;;;;;;5034254;28;20208;-80
2022/11/06 14:02:21;;;;;;;5.53;1.83;;;;;;;;;;5034639;28;20176;-80
2022/11/06 14:04:47;;;;;;;4.47;1.93;;;;;;;;;;5034447;28;20185;-80
2022/11/06 14:07:13;;;;;;;7.40;2.03;;;;;;;;;;5034338;28;20248;-80
2022/11/06 14:09:42;;;;;;;5.07;1.80;;;;;;;;;;5017561;28;20212;-80
2022/11/06 14:12:12;;;;;;;6.47;1.90;;;;;;;;;;5035086;28;20173;-80
2022/11/06 14:14:38;;;;;;;5.57;1.70;;;;;;;;;;5035238;28;20184;-80
2022/11/06 14:17:12;;;;;;;4.70;1.67;;;;;;;;;;5017981;28;20176;-80
2022/11/06 14:19:38;;;;;;;6.40;1.80;;;;;;;;;;5034037;28;20187;-82
2022/11/06 14:22:07;;;;;;;3.93;1.60;;;;;;;;;;5033990;28;20196;-80
2022/11/06 14:24:38;;;;;;;4.50;1.87;;;;;;;;;;5033678;28;20227;-80
2022/11/06 14:27:22;;;;;;;6.73;1.63;;;;;;;;;;5034901;28;20180;-76
2022/11/06 14:30:11;;;;;;;4.07;1.83;;;;;;;;;;5033641;28;20208;-76
2022/11/06 14:32:40;;;;;;;5.17;1.93;;;;;;;;;;5024699;28;20244;-76
2022/11/06 14:35:35;;;;;;;5.60;1.67;;;;;;;;;;5034668;28;20248;-76
2022/11/06 14:38:19;;;;;;;4.27;2.00;;;;;;;;;;5024850;28;20188;-76
2022/11/06 14:40:45;;;;;;;3.90;1.80;;;;;;;;;;5033326;28;20266;-76
2022/11/06 14:43:16;;;;;;;6.82;2.10;;;;;;;;;;5016116;28;20433;-76
2022/11/06 14:45:49;;;;;;;6.00;2.00;;;;;;;;;;5032805;28;20409;-79
2022/11/06 14:48:24;;;;;;;7.53;1.98;;;;;;;;;;5032455;28;20423;-79
2022/11/06 14:50:50;;;;;;;4.00;1.77;;;;;;;;;;5028877;28;20498;-79
2022/11/06 14:53:16;;;;;;;4.37;1.70;;;;;;;;;;5013712;28;20470;-79
2022/11/06 14:55:45;;;;;;;5.20;1.97;;;;;;;;;;5030189;28;20177;-89
2022/11/06 14:58:18;;;;;;;6.53;1.90;;;;;;;;;;5031268;28;20215;-89
2022/11/06 15:00:47;;;;;;;5.23;1.97;;;;;;;;;;5030484;28;20181;-80
2022/11/06 15:03:23;;;;;;;4.77;1.93;;;;;;;;;;5030241;28;20184;-80